Time;durP1;ratioP1;P1;durP2;ratioP2;P2;SDS_P1;SDS_P2;PMS_P1;PMS_P2;Temp;Humidity;BMP_temperature;BMP_pressure;BME280_temperature;BME280_humidity;BME280_pressure;Samples;Min_cycle;Max_cycle;Signal;HPM_P1;HPM_P2
2022/09/10 00:01:38;;;;;;;2.63;1.30;;;16.50;26.20;;;;;;5047816;28;34367;-78
2022/09/10 00:04:11;;;;;;;2.92;1.50;;;16.40;26.20;;;;;;5042739;28;34470;-77
2022/09/10 00:06:37;;;;;;;1.95;1.40;;;16.40;26.60;;;;;;5026628;28;36976;-78
2022/09/10 00:09:05;;;;;;;3.25;1.38;;;16.40;26.30;;;;;;5026260;28;34368;-77
2022/09/10 00:11:31;;;;;;;4.18;1.48;;;16.40;26.00;;;;;;5042631;28;34271;-77
2022/09/10 00:13:59;;;;;;;3.22;1.50;;;16.40;26.40;;;;;;5043939;28;34058;-78
2022/09/10 00:16:26;;;;;;;5.00;1.50;;;16.40;26.40;;;;;;5025470;28;35855;-78
2022/09/10 00:18:52;;;;;;;5.22;1.38;;;16.40;26.20;;;;;;5042567;28;34087;-77
2022/09/10 00:21:20;;;;;;;4.10;1.27;;;16.40;26.40;;;;;;5043727;28;34221;-77
2022/09/10 00:23:46;;;;;;;1.83;1.33;;;16.40;26.30;;;;;;5026313;28;34135;-77
2022/09/10 00:26:20;;;;;;;2.47;1.30;;;16.40;26.20;;;;;;5042115;28;36164;-77
2022/09/10 00:28:48;;;;;;;3.05;1.17;;;16.50;26.70;;;;;;5026374;28;34119;-77
2022/09/10 00:31:15;;;;;;;4.55;1.75;;;16.40;26.40;;;;;;5043868;28;34140;-77
2022/09/10 00:33:41;;;;;;;4.30;1.73;;;16.40;26.50;;;;;;5025961;28;34158;-77
2022/09/10 00:36:18;;;;;;;2.75;1.30;;;16.40;26.60;;;;;;5042251;28;35715;-77
2022/09/10 00:38:44;;;;;;;3.10;1.20;;;16.40;27.30;;;;;;5042249;28;34273;-77
2022/09/10 00:41:10;;;;;;;2.05;1.30;;;16.30;26.60;;;;;;5042328;28;34237;-77
2022/09/10 00:43:54;;;;;;;3.47;1.60;;;16.30;26.40;;;;;;5042509;28;34397;-77
2022/09/10 00:46:29;;;;;;;4.25;1.30;;;16.40;27.50;;;;;;5041523;28;35502;-77
2022/09/10 00:48:57;;;;;;;4.32;1.27;;;16.30;26.90;;;;;;5043205;28;34181;-77
2022/09/10 00:51:25;;;;;;;1.27;1.17;;;16.30;26.20;;;;;;5042523;28;34006;-77
2022/09/10 00:53:52;;;;;;;2.35;1.00;;;16.30;26.40;;;;;;5026024;28;34072;-77
2022/09/10 00:56:19;;;;;;;3.38;1.30;;;16.40;26.20;;;;;;5041712;28;35825;-77
2022/09/10 00:58:47;;;;;;;3.63;1.35;;;16.40;26.30;;;;;;5043144;28;34389;-77
2022/09/10 01:01:14;;;;;;;3.60;1.52;;;16.40;26.50;;;;;;5042423;28;34193;-77
2022/09/10 01:03:42;;;;;;;2.50;1.00;;;16.40;26.70;;;;;;5042009;28;34637;-78
2022/09/10 01:06:09;;;;;;;3.10;1.30;;;16.40;26.60;;;;;;5041657;28;36626;-77
2022/09/10 01:08:35;;;;;;;1.58;1.08;;;16.40;26.50;;;;;;5041721;28;34358;-77
2022/09/10 01:11:36;;;;;;;3.55;1.10;;;16.40;26.60;;;;;;5041946;28;34252;-77
2022/09/10 01:14:33;;;;;;;1.60;0.85;;;16.40;27.40;;;;;;5042625;28;34179;-77
2022/09/10 01:17:11;;;;;;;2.80;1.00;;;16.40;28.40;;;;;;5041768;28;35689;-77
2022/09/10 01:20:09;;;;;;;1.20;1.10;;;16.40;26.50;;;;;;5026130;28;34089;-76
2022/09/10 01:23:03;;;;;;;2.50;1.10;;;16.30;27.80;;;;;;5042561;28;34142;-78
2022/09/10 01:25:50;;;;;;;1.73;1.10;;;16.30;26.60;;;;;;5043143;28;34044;-76
2022/09/10 01:28:26;;;;;;;1.17;1.08;;;16.30;27.00;;;;;;5025971;28;35630;-78
2022/09/10 01:31:01;;;;;;;1.77;0.73;;;16.30;26.50;;;;;;5025573;28;34408;-79
2022/09/10 01:33:36;;;;;;;1.58;0.90;;;16.30;26.80;;;;;;5043052;28;34674;-77
2022/09/10 01:36:11;;;;;;;0.95;0.80;;;16.30;26.40;;;;;;5042794;28;34172;-78
2022/09/10 01:38:40;;;;;;;1.00;0.90;;;16.30;26.40;;;;;;5042739;28;36052;-77
2022/09/10 01:41:07;;;;;;;0.93;0.73;;;16.30;25.80;;;;;;5043293;28;34332;-79
2022/09/10 01:43:33;;;;;;;1.85;0.70;;;16.30;26.20;;;;;;5027279;28;34188;-77
2022/09/10 01:46:25;;;;;;;2.55;0.80;;;16.20;25.90;;;;;;5009372;28;34481;-77
2022/09/10 01:49:13;;;;;;;2.40;0.80;;;16.30;26.40;;;;;;5043525;28;34173;-77
2022/09/10 01:52:02;;;;;;;1.40;0.75;;;16.30;26.00;;;;;;5045700;28;34362;-77
2022/09/10 01:54:58;;;;;;;1.80;0.52;;;16.30;26.60;;;;;;5045170;28;34343;-77
2022/09/10 01:57:41;;;;;;;2.13;0.93;;;16.20;26.70;;;;;;5045565;28;34287;-76
2022/09/10 02:00:11;;;;;;;3.13;0.88;;;16.20;26.60;;;;;;5044386;28;36027;-76
2022/09/10 02:03:01;;;;;;;2.33;0.98;;;16.20;25.60;;;;;;5044519;28;34151;-77
2022/09/10 02:05:29;;;;;;;4.55;0.95;;;16.20;25.80;;;;;;5018719;28;34501;-77
2022/09/10 02:07:59;;;;;;;2.67;0.98;;;16.20;26.10;;;;;;5047964;28;34295;-76
2022/09/10 02:10:25;;;;;;;2.45;0.75;;;16.20;26.20;;;;;;5046870;28;36593;-76
2022/09/10 02:12:51;;;;;;;5.88;0.90;;;16.10;26.20;;;;;;5048289;28;34131;-78
2022/09/10 02:15:20;;;;;;;1.27;0.88;;;16.00;26.20;;;;;;5047599;28;34166;-77
2022/09/10 02:17:48;;;;;;;1.63;0.88;;;16.00;26.20;;;;;;5031498;28;34149;-76
2022/09/10 02:20:15;;;;;;;2.88;0.80;;;16.00;26.50;;;;;;5065054;28;34865;-77
2022/09/10 02:22:48;;;;;;;2.55;1.08;;;16.00;26.60;;;;;;5047691;28;34191;-78
2022/09/10 02:25:15;;;;;;;3.03;1.05;;;16.00;27.10;;;;;;5047301;28;34214;-76
2022/09/10 02:27:42;;;;;;;2.50;0.80;;;15.90;26.70;;;;;;5047849;28;34096;-77
2022/09/10 02:30:10;;;;;;;4.65;0.80;;;15.90;26.90;;;;;;5047150;28;35546;-76
2022/09/10 02:32:36;;;;;;;1.02;0.80;;;16.00;26.90;;;;;;5064738;28;34290;-76
2022/09/10 02:35:02;;;;;;;1.65;0.75;;;15.90;26.80;;;;;;5047761;28;34200;-77
2022/09/10 02:37:28;;;;;;;1.75;0.73;;;15.90;26.80;;;;;;5065228;28;34057;-76
2022/09/10 02:39:54;;;;;;;1.13;0.77;;;15.90;27.00;;;;;;5030442;28;36332;-76
2022/09/10 02:42:21;;;;;;;0.80;0.80;;;15.90;28.10;;;;;;5046742;28;34444;-76
2022/09/10 02:44:47;;;;;;;2.38;1.15;;;15.90;27.00;;;;;;5065414;28;34102;-77
2022/09/10 02:47:13;;;;;;;1.90;0.70;;;15.90;27.20;;;;;;5047074;28;34151;-77
2022/09/10 02:49:39;;;;;;;3.28;0.70;;;15.90;26.50;;;;;;5064828;28;35329;-77
2022/09/10 02:52:05;;;;;;;2.35;0.82;;;16.00;26.70;;;;;;5030174;28;34179;-77
2022/09/10 02:54:31;;;;;;;1.92;0.75;;;16.00;26.60;;;;;;5030964;28;34281;-77
2022/09/10 02:56:57;;;;;;;1.10;0.70;;;16.00;26.80;;;;;;5030709;28;34140;-77
2022/09/10 02:59:23;;;;;;;2.75;0.85;;;16.00;26.90;;;;;;5046365;28;36028;-77
2022/09/10 03:01:50;;;;;;;1.25;0.73;;;16.00;26.90;;;;;;5029524;28;34234;-77
2022/09/10 03:04:16;;;;;;;2.08;1.00;;;16.00;27.10;;;;;;5029908;28;34198;-77
2022/09/10 03:06:42;;;;;;;1.23;0.75;;;16.00;26.80;;;;;;5046715;28;34123;-76
2022/09/10 03:09:09;;;;;;;0.82;0.77;;;16.00;27.00;;;;;;5064670;28;35147;-77
2022/09/10 03:11:38;;;;;;;1.08;1.02;;;16.00;26.80;;;;;;5063142;28;34300;-77
2022/09/10 03:14:05;;;;;;;2.20;0.90;;;16.00;27.20;;;;;;5030485;28;34230;-76
2022/09/10 03:16:31;;;;;;;3.00;0.80;;;16.10;27.20;;;;;;5030363;28;34408;-77
2022/09/10 03:18:57;;;;;;;1.13;1.02;;;16.10;27.00;;;;;;5018633;28;35773;-77
2022/09/10 03:21:24;;;;;;;0.70;0.70;;;16.10;27.50;;;;;;4993716;28;34437;-77
2022/09/10 03:23:51;;;;;;;0.70;0.70;;;16.10;27.10;;;;;;5026680;28;34401;-77
2022/09/10 03:26:19;;;;;;;1.73;0.93;;;16.10;27.20;;;;;;5026832;28;34100;-77
2022/09/10 03:28:46;;;;;;;1.00;0.90;;;16.10;27.20;;;;;;5044035;28;34421;-77
2022/09/10 03:31:13;;;;;;;1.30;0.90;;;16.10;27.30;;;;;;5026806;28;34289;-77
2022/09/10 03:33:40;;;;;;;1.10;0.85;;;16.10;27.20;;;;;;5010150;28;34158;-77
2022/09/10 03:36:08;;;;;;;1.65;1.00;;;16.10;27.80;;;;;;5025451;28;34551;-77
2022/09/10 03:38:34;;;;;;;2.55;1.20;;;16.10;27.40;;;;;;5029639;28;35553;-77
2022/09/10 03:41:01;;;;;;;1.55;1.10;;;16.20;27.30;;;;;;5029877;28;34240;-77
2022/09/10 03:43:28;;;;;;;0.90;0.90;;;16.20;27.60;;;;;;5064379;28;34080;-77
2022/09/10 03:45:54;;;;;;;1.33;0.98;;;16.20;27.50;;;;;;5046613;28;34385;-77
2022/09/10 03:48:21;;;;;;;1.73;1.10;;;16.20;27.70;;;;;;5063696;28;34435;-77
2022/09/10 03:50:50;;;;;;;1.85;1.25;;;16.20;27.50;;;;;;5046641;28;34325;-77
2022/09/10 03:53:17;;;;;;;4.60;1.30;;;16.20;27.60;;;;;;5045715;28;34132;-77
2022/09/10 03:55:44;;;;;;;1.08;0.98;;;16.20;27.60;;;;;;5046258;28;34069;-77
2022/09/10 03:58:10;;;;;;;1.75;1.00;;;16.20;27.90;;;;;;5045808;28;36336;-77
2022/09/10 04:00:36;;;;;;;2.13;1.23;;;16.20;27.50;;;;;;5046906;28;34174;-77
2022/09/10 04:03:02;;;;;;;4.53;1.50;;;16.20;27.90;;;;;;5046244;28;34235;-76
2022/09/10 04:05:28;;;;;;;1.67;1.40;;;16.20;27.70;;;;;;5029434;28;34060;-77
2022/09/10 04:07:57;;;;;;;2.28;1.35;;;16.20;27.90;;;;;;5045957;28;34094;-77
2022/09/10 04:10:25;;;;;;;3.10;1.60;;;16.20;27.70;;;;;;5029912;28;34426;-76
2022/09/10 04:12:52;;;;;;;4.22;1.65;;;16.10;27.80;;;;;;5044255;28;34373;-76
2022/09/10 04:15:20;;;;;;;4.40;1.63;;;16.10;28.30;;;;;;5043694;28;34141;-77
2022/09/10 04:17:50;;;;;;;3.60;1.60;;;16.10;27.80;;;;;;5026341;28;35021;-76
2022/09/10 04:20:19;;;;;;;1.65;1.40;;;16.20;27.50;;;;;;5026543;28;34572;-76
2022/09/10 04:22:46;;;;;;;2.88;1.60;;;16.20;27.80;;;;;;5043316;28;34225;-76
2022/09/10 04:25:13;;;;;;;5.82;1.83;;;16.20;28.10;;;;;;5025907;28;34278;-76
2022/09/10 04:27:39;;;;;;;3.15;2.00;;;16.20;28.20;;;;;;5043284;28;34579;-76
2022/09/10 04:30:06;;;;;;;5.63;1.85;;;16.20;27.70;;;;;;5043352;28;34281;-76
2022/09/10 04:32:32;;;;;;;6.97;1.83;;;16.20;27.80;;;;;;5009501;28;34187;-76
2022/09/10 04:34:58;;;;;;;3.92;1.83;;;16.20;27.40;;;;;;5009629;28;34200;-76
2022/09/10 04:37:24;;;;;;;3.10;1.80;;;16.20;27.80;;;;;;5025201;28;35753;-76
2022/09/10 04:39:50;;;;;;;3.83;2.10;;;16.20;27.60;;;;;;5009223;28;34193;-75
2022/09/10 04:42:17;;;;;;;3.13;1.90;;;16.20;27.70;;;;;;5008809;28;34255;-76
2022/09/10 04:44:43;;;;;;;5.47;1.70;;;16.20;27.70;;;;;;4993536;28;34131;-76
2022/09/10 04:47:09;;;;;;;3.60;2.00;;;16.20;27.90;;;;;;5009008;28;36514;-77
2022/09/10 04:49:35;;;;;;;3.67;1.65;;;16.20;28.10;;;;;;5008950;28;34221;-76
2022/09/10 04:52:01;;;;;;;3.03;1.65;;;16.20;28.30;;;;;;5008761;28;34198;-76
2022/09/10 04:54:27;;;;;;;3.63;1.77;;;16.20;28.30;;;;;;4993073;28;34435;-76
2022/09/10 04:56:53;;;;;;;4.47;2.00;;;16.20;28.30;;;;;;5009128;28;35841;-76
2022/09/10 04:59:20;;;;;;;2.50;1.65;;;16.20;28.00;;;;;;5025874;28;34179;-76
2022/09/10 05:01:49;;;;;;;2.55;1.80;;;16.20;28.60;;;;;;4992938;28;34080;-77
2022/09/10 05:04:16;;;;;;;3.13;1.77;;;16.20;28.10;;;;;;5025163;28;34190;-76
2022/09/10 05:06:42;;;;;;;4.32;1.70;;;16.10;28.30;;;;;;5025185;28;35586;-76
2022/09/10 05:09:08;;;;;;;2.78;1.90;;;16.10;28.30;;;;;;5025520;28;34209;-76
2022/09/10 05:11:35;;;;;;;4.63;1.92;;;16.20;28.40;;;;;;5041892;28;34095;-77
2022/09/10 05:14:01;;;;;;;6.47;1.83;;;16.20;28.30;;;;;;5062403;28;34104;-78
2022/09/10 05:16:27;;;;;;;6.15;2.33;;;16.10;28.30;;;;;;5025017;28;35513;-77
2022/09/10 05:18:53;;;;;;;4.25;1.58;;;16.20;28.50;;;;;;5022063;28;34203;-76
2022/09/10 05:21:19;;;;;;;3.88;1.70;;;16.10;28.70;;;;;;5050511;28;34300;-76
2022/09/10 05:23:45;;;;;;;3.03;1.70;;;16.20;28.40;;;;;;5026165;28;34135;-77
2022/09/10 05:26:11;;;;;;;3.17;1.80;;;16.10;28.50;;;;;;5040924;28;34171;-77
2022/09/10 05:28:37;;;;;;;3.13;1.60;;;16.10;28.60;;;;;;5001925;28;34239;-76
2022/09/10 05:31:04;;;;;;;3.78;2.08;;;16.10;28.50;;;;;;5028405;28;34265;-76
2022/09/10 05:33:30;;;;;;;4.22;1.90;;;16.20;27.80;;;;;;5038644;28;34091;-76
2022/09/10 05:35:56;;;;;;;5.65;1.60;;;16.20;27.80;;;;;;5031807;28;34898;-76
2022/09/10 05:38:23;;;;;;;4.45;1.92;;;16.20;27.90;;;;;;5022998;28;34458;-76
2022/09/10 05:40:49;;;;;;;7.03;2.40;;;16.20;28.30;;;;;;5036504;28;34360;-76
2022/09/10 05:43:15;;;;;;;2.70;1.50;;;16.20;27.70;;;;;;5033717;28;35437;-76
2022/09/10 05:45:41;;;;;;;6.15;2.17;;;16.20;28.30;;;;;;5048290;28;35965;-76
2022/09/10 05:48:07;;;;;;;6.32;2.00;;;16.20;28.40;;;;;;5066155;28;34101;-76
2022/09/10 05:50:33;;;;;;;4.60;2.20;;;16.20;28.30;;;;;;5031608;28;34195;-76
2022/09/10 05:53:00;;;;;;;4.15;2.03;;;16.20;28.60;;;;;;5015082;28;34516;-76
2022/09/10 05:55:26;;;;;;;3.95;1.75;;;16.20;28.10;;;;;;5047565;28;35525;-76
2022/09/10 05:57:52;;;;;;;3.38;2.03;;;16.20;28.80;;;;;;5031659;28;34229;-76
2022/09/10 06:00:18;;;;;;;4.57;1.90;;;16.20;28.50;;;;;;5031341;28;34417;-76
2022/09/10 06:02:44;;;;;;;3.25;1.75;;;16.20;28.70;;;;;;5048133;28;34581;-76
2022/09/10 06:05:11;;;;;;;4.45;1.90;;;16.10;28.50;;;;;;5065674;28;34274;-77
2022/09/10 06:07:37;;;;;;;5.57;2.25;;;16.10;28.60;;;;;;5044416;28;34248;-77
2022/09/10 06:10:04;;;;;;;3.35;1.77;;;16.20;28.60;;;;;;5028149;28;34225;-77
2022/09/10 06:12:30;;;;;;;6.22;2.00;;;16.20;27.80;;;;;;5024491;28;34227;-76
2022/09/10 06:14:56;;;;;;;6.18;1.83;;;16.20;28.50;;;;;;5024062;28;35531;-76
2022/09/10 06:17:22;;;;;;;4.22;1.55;;;16.20;28.30;;;;;;5030327;28;34404;-76
2022/09/10 06:19:50;;;;;;;2.60;1.50;;;16.20;28.30;;;;;;5024785;28;34075;-76
2022/09/10 06:22:17;;;;;;;4.35;1.52;;;16.20;28.30;;;;;;5038334;28;34445;-77
2022/09/10 06:24:43;;;;;;;3.08;1.70;;;16.20;28.60;;;;;;5024457;28;35880;-77
2022/09/10 06:27:09;;;;;;;4.25;1.52;;;16.20;28.60;;;;;;5034093;28;34293;-76
2022/09/10 06:29:36;;;;;;;4.25;1.30;;;16.20;28.40;;;;;;5008782;28;34446;-76
2022/09/10 06:32:02;;;;;;;4.93;1.52;;;16.30;28.40;;;;;;5026800;28;34185;-77
2022/09/10 06:34:28;;;;;;;3.33;1.50;;;16.40;28.70;;;;;;5023565;28;36128;-77
2022/09/10 06:36:57;;;;;;;2.13;1.23;;;16.40;28.70;;;;;;5031286;28;34372;-76
2022/09/10 06:39:23;;;;;;;5.03;1.42;;;16.40;28.50;;;;;;5044970;28;34152;-77
2022/09/10 06:41:49;;;;;;;1.45;1.27;;;16.40;28.60;;;;;;5043985;28;34098;-76
2022/09/10 06:44:15;;;;;;;2.53;1.35;;;16.40;28.60;;;;;;5026819;28;36345;-76
2022/09/10 06:46:41;;;;;;;2.88;1.30;;;16.40;28.50;;;;;;5027347;28;34017;-76
2022/09/10 06:49:10;;;;;;;4.25;1.45;;;16.50;28.30;;;;;;5027799;28;34198;-76
2022/09/10 06:51:38;;;;;;;1.00;1.00;;;16.40;28.30;;;;;;5043598;28;34122;-76
2022/09/10 06:54:04;;;;;;;6.10;1.05;;;16.40;28.00;;;;;;5036694;28;34146;-77
2022/09/10 06:56:30;;;;;;;2.55;1.13;;;16.40;28.60;;;;;;5024739;28;34074;-76
2022/09/10 06:58:57;;;;;;;1.02;0.93;;;16.40;28.70;;;;;;5037472;28;34271;-76
2022/09/10 07:01:24;;;;;;;2.28;0.98;;;16.50;28.60;;;;;;5039559;28;34652;-77
2022/09/10 07:04:00;;;;;;;4.53;1.27;;;16.40;29.10;;;;;;5033039;28;35221;-76
2022/09/10 07:06:30;;;;;;;1.13;1.00;;;16.50;29.20;;;;;;5029600;28;34259;-78
2022/09/10 07:08:57;;;;;;;2.35;0.80;;;16.50;28.50;;;;;;5044806;28;34071;-77
2022/09/10 07:11:25;;;;;;;0.60;0.60;;;16.50;28.60;;;;;;5042658;28;34090;-77
2022/09/10 07:13:52;;;;;;;0.80;0.80;;;16.60;28.60;;;;;;5043293;28;35671;-76
2022/09/10 07:16:21;;;;;;;0.90;0.90;;;16.60;28.60;;;;;;5043931;28;34137;-76
2022/09/10 07:18:50;;;;;;;2.75;0.80;;;16.60;28.00;;;;;;5041196;28;34354;-77
2022/09/10 07:21:18;;;;;;;1.27;1.17;;;16.60;28.60;;;;;;5043557;28;34483;-77
2022/09/10 07:23:47;;;;;;;0.80;0.75;;;16.60;28.50;;;;;;5042914;28;35794;-77
2022/09/10 07:26:16;;;;;;;1.00;0.70;;;16.70;28.10;;;;;;5026818;28;34208;-76
2022/09/10 07:28:42;;;;;;;1.42;0.80;;;16.70;28.10;;;;;;5026870;28;34158;-77
2022/09/10 07:31:14;;;;;;;2.90;0.82;;;16.70;27.80;;;;;;5027985;28;34451;-79
2022/09/10 07:33:41;;;;;;;1.05;0.52;;;16.80;28.40;;;;;;5048098;28;34331;-78
2022/09/10 07:36:07;;;;;;;1.30;0.60;;;16.80;28.20;;;;;;5044584;28;34342;-77
2022/09/10 07:38:33;;;;;;;0.35;0.35;;;16.90;27.70;;;;;;5045227;28;34320;-77
2022/09/10 07:41:00;;;;;;;0.45;0.45;;;16.90;27.70;;;;;;5047768;28;34295;-79
2022/09/10 07:43:26;;;;;;;0.30;0.30;;;16.90;28.10;;;;;;5047010;28;35768;-78
2022/09/10 07:45:52;;;;;;;0.50;0.50;;;17.00;27.70;;;;;;5043464;28;34143;-77
2022/09/10 07:48:17;;;;;;;1.13;0.50;;;17.00;27.70;;;;;;5038974;28;34090;-77
2022/09/10 07:50:44;;;;;;;0.30;0.30;;;17.00;28.00;;;;;;5043787;28;34378;-77
2022/09/10 07:53:10;;;;;;;0.20;0.20;;;17.10;27.90;;;;;;5040416;28;35710;-78
2022/09/10 07:55:36;;;;;;;0.40;0.40;;;17.00;27.20;;;;;;5043281;28;34217;-77
2022/09/10 07:58:02;;;;;;;0.65;0.47;;;17.10;27.30;;;;;;5019991;28;34225;-77
2022/09/10 08:00:28;;;;;;;0.75;0.35;;;17.00;27.50;;;;;;5036312;28;34316;-78
2022/09/10 08:02:55;;;;;;;0.30;0.30;;;17.10;27.70;;;;;;5043823;28;34284;-76
2022/09/10 08:05:22;;;;;;;0.45;0.40;;;17.10;27.40;;;;;;5042276;28;34131;-78
2022/09/10 08:07:50;;;;;;;0.52;0.50;;;17.20;27.80;;;;;;5059516;28;34415;-77
2022/09/10 08:10:17;;;;;;;0.93;0.50;;;17.30;27.60;;;;;;5038217;28;34202;-77
2022/09/10 08:12:43;;;;;;;0.28;0.28;;;17.40;27.40;;;;;;5024320;28;35982;-76
2022/09/10 08:15:10;;;;;;;0.80;0.50;;;17.50;27.20;;;;;;5025573;28;35926;-77
2022/09/10 08:17:37;;;;;;;0.30;0.30;;;17.50;27.00;;;;;;5023289;28;34477;-78
2022/09/10 08:20:06;;;;;;;3.10;1.45;;;17.60;27.10;;;;;;5059658;28;34498;-76
2022/09/10 08:22:33;;;;;;;0.55;0.55;;;17.80;27.30;;;;;;5025837;28;35835;-78
2022/09/10 08:25:01;;;;;;;1.10;1.00;;;17.80;26.90;;;;;;5033576;28;34239;-77
2022/09/10 08:27:28;;;;;;;0.50;0.38;;;17.80;26.80;;;;;;5010214;28;34518;-78
2022/09/10 08:29:55;;;;;;;0.20;0.20;;;17.80;26.50;;;;;;5056739;28;34267;-77
2022/09/10 08:32:22;;;;;;;1.35;0.32;;;17.80;26.60;;;;;;5028875;28;35650;-76
2022/09/10 08:37:33;;;;;;;0.75;0.50;;;17.60;26.40;;;;;;5054095;28;34592;-76
2022/09/10 08:39:58;;;;;;;0.40;0.40;;;17.60;26.50;;;;;;5044980;28;34488;-76
2022/09/10 08:42:34;;;;;;;0.35;0.35;;;17.60;26.90;;;;;;5044405;28;35730;-76
2022/09/10 08:45:10;;;;;;;0.38;0.38;;;17.70;26.60;;;;;;5030136;28;34281;-75
2022/09/10 08:47:59;;;;;;;0.40;0.30;;;17.60;26.90;;;;;;5025295;28;34199;-75
2022/09/10 08:50:43;;;;;;;0.68;0.40;;;17.70;26.90;;;;;;5043120;28;34288;-77
2022/09/10 08:53:34;;;;;;;0.50;0.50;;;17.60;27.50;;;;;;5057839;28;34183;-76
2022/09/10 08:56:08;;;;;;;1.23;0.50;;;17.60;27.50;;;;;;5049937;28;34158;-77
2022/09/10 08:58:53;;;;;;;3.70;0.60;;;17.70;26.50;;;;;;5024946;28;34173;-77
2022/09/10 09:01:33;;;;;;;0.40;0.40;;;17.80;27.20;;;;;;5067162;28;34120;-77
2022/09/10 09:04:03;;;;;;;0.75;0.40;;;17.80;26.70;;;;;;5058678;28;34506;-77
2022/09/10 09:06:43;;;;;;;0.52;0.52;;;17.80;26.40;;;;;;5031421;28;34336;-78
2022/09/10 09:09:10;;;;;;;0.52;0.28;;;17.80;26.30;;;;;;5047466;28;34645;-77
2022/09/10 09:12:14;;;;;;;0.88;0.40;;;17.90;26.40;;;;;;5046622;28;34645;-78
2022/09/10 09:14:53;;;;;;;1.00;0.82;;;18.00;26.60;;;;;;5055477;28;35082;-77
2022/09/10 09:17:41;;;;;;;0.95;0.40;;;18.20;26.20;;;;;;5048298;28;34267;-77
2022/09/10 09:22:48;;;;;;;0.47;0.40;;;18.20;25.40;;;;;;5190415;27;34237;-76
2022/09/10 09:25:26;;;;;;;0.43;0.43;;;18.30;25.30;;;;;;5162923;27;34200;-76
2022/09/10 09:27:55;;;;;;;0.95;0.32;;;18.20;24.80;;;;;;5152264;27;34215;-79
2022/09/10 09:30:26;;;;;;;0.30;0.30;;;18.20;25.60;;;;;;5138922;27;35936;-75
2022/09/10 09:32:56;;;;;;;0.30;0.30;;;18.20;25.50;;;;;;5160142;27;34138;-76
2022/09/10 09:35:35;;;;;;;0.65;0.50;;;18.10;25.90;;;;;;5165042;27;34464;-74
2022/09/10 09:38:19;;;;;;;0.43;0.43;;;18.30;25.80;;;;;;5165896;27;34094;-75
2022/09/10 09:40:49;;;;;;;0.40;0.40;;;18.50;25.90;;;;;;5164991;27;35771;-76
2022/09/10 09:43:38;;;;;;;0.50;0.50;;;18.60;25.70;;;;;;5184612;27;34223;-77
2022/09/10 09:46:14;;;;;;;0.40;0.40;;;18.70;24.70;;;;;;5184427;27;34131;-76
2022/09/10 09:48:41;;;;;;;0.70;0.50;;;18.80;24.40;;;;;;5165790;27;34229;-74
2022/09/10 09:51:10;;;;;;;1.83;0.50;;;18.80;24.40;;;;;;5164948;27;35497;-78
2022/09/10 09:53:36;;;;;;;0.38;0.38;;;18.90;24.30;;;;;;5157507;27;34076;-76
2022/09/10 09:56:09;;;;;;;0.40;0.40;;;18.90;24.30;;;;;;5162356;27;34318;-76
2022/09/10 09:58:37;;;;;;;1.10;0.70;;;18.90;24.50;;;;;;5144525;27;34337;-74
2022/09/10 10:01:13;;;;;;;0.45;0.43;;;19.00;24.30;;;;;;5143460;27;35784;-75
2022/09/10 10:03:52;;;;;;;2.30;0.55;;;19.20;24.00;;;;;;5144021;27;34191;-75
2022/09/10 10:06:23;;;;;;;0.60;0.57;;;19.10;23.80;;;;;;5162589;27;34060;-74
2022/09/10 10:09:06;;;;;;;0.98;0.70;;;19.30;23.70;;;;;;5124142;27;34507;-76
2022/09/10 10:11:52;;;;;;;0.60;0.60;;;19.40;23.00;;;;;;5142775;27;34325;-76
2022/09/10 10:14:34;;;;;;;0.60;0.60;;;19.30;21.80;;;;;;5152591;27;34543;-75
2022/09/10 10:17:01;;;;;;;0.60;0.57;;;19.40;23.40;;;;;;5145308;27;34269;-75
2022/09/10 10:19:34;;;;;;;1.70;0.90;;;19.40;23.40;;;;;;5161887;27;34304;-75
2022/09/10 10:22:19;;;;;;;1.33;0.80;;;19.40;22.80;;;;;;5143611;27;36101;-78
2022/09/10 10:24:47;;;;;;;0.70;0.70;;;19.50;21.50;;;;;;5151775;27;34111;-75
2022/09/10 10:27:19;;;;;;;2.58;0.93;;;19.50;22.90;;;;;;5157848;27;34186;-77
2022/09/10 10:29:58;;;;;;;0.70;0.70;;;19.50;22.90;;;;;;5138211;27;34156;-78
2022/09/10 10:32:46;;;;;;;0.80;0.80;;;19.50;21.40;;;;;;5153178;27;35891;-77
2022/09/10 10:35:33;;;;;;;1.23;0.80;;;19.50;21.60;;;;;;5149457;27;34086;-74
2022/09/10 10:38:12;;;;;;;1.08;0.95;;;19.70;23.40;;;;;;5130249;27;34520;-75
2022/09/10 10:40:47;;;;;;;1.45;1.13;;;19.80;21.80;;;;;;5151446;27;34295;-75
2022/09/10 10:43:35;;;;;;;1.88;0.80;;;20.00;22.40;;;;;;5146184;27;35088;-75
2022/09/10 10:46:05;;;;;;;3.00;1.00;;;20.20;21.20;;;;;;5129806;27;34378;-74
2022/09/10 10:48:46;;;;;;;1.33;0.73;;;20.30;22.60;;;;;;5129274;27;34129;-79
2022/09/10 10:51:33;;;;;;;0.90;0.82;;;20.50;21.90;;;;;;5140949;27;34096;-75
2022/09/10 10:54:13;;;;;;;1.95;0.70;;;20.60;19.70;;;;;;5117373;27;36033;-78
2022/09/10 10:56:48;;;;;;;1.52;0.90;;;20.90;21.20;;;;;;5152963;27;34886;-76
2022/09/10 10:59:35;;;;;;;3.47;0.85;;;21.10;20.90;;;;;;5138507;27;34131;-74
2022/09/10 11:02:14;;;;;;;1.20;0.90;;;21.40;18.30;;;;;;5121011;27;34285;-80
2022/09/10 11:04:49;;;;;;;3.28;0.75;;;21.60;20.60;;;;;;5130535;27;35890;-77
2022/09/10 11:07:32;;;;;;;1.77;0.90;;;21.50;17.20;;;;;;5134078;27;34416;-76
2022/09/10 11:10:05;;;;;;;1.40;0.85;;;21.70;19.20;;;;;;5116002;27;34064;-77
2022/09/10 11:12:38;;;;;;;0.80;0.80;;;21.80;19.90;;;;;;5113138;27;34509;-77
2022/09/10 11:15:27;;;;;;;1.27;0.90;;;21.90;18.90;;;;;;5138640;27;35535;-79
2022/09/10 11:18:12;;;;;;;1.10;0.70;;;21.80;14.40;;;;;;5119466;27;34250;-75
2022/09/10 11:20:45;;;;;;;0.88;0.60;;;21.70;16.10;;;;;;5142017;27;34226;-77
2022/09/10 11:23:38;;;;;;;1.48;1.05;;;21.60;18.40;;;;;;5150762;27;34296;-76
2022/09/10 11:26:11;;;;;;;0.80;0.70;;;21.40;16.50;;;;;;5107160;27;36407;-77
2022/09/10 11:28:58;;;;;;;1.58;1.00;;;21.30;18.30;;;;;;5128183;27;34407;-77
2022/09/10 11:31:32;;;;;;;2.35;1.10;;;21.40;19.00;;;;;;5132940;27;34233;-75
2022/09/10 11:34:04;;;;;;;3.15;1.02;;;21.70;19.00;;;;;;5159083;27;34382;-75
2022/09/10 11:36:44;;;;;;;2.15;1.00;;;21.90;19.10;;;;;;5136353;27;35805;-77
2022/09/10 11:39:19;;;;;;;2.05;0.73;;;22.00;16.40;;;;;;5161066;27;34125;-78
2022/09/10 11:41:48;;;;;;;2.00;0.77;;;22.10;17.30;;;;;;5144721;27;34510;-75
2022/09/10 11:44:34;;;;;;;3.15;1.00;;;22.10;17.10;;;;;;5145500;27;34119;-74
2022/09/10 11:47:23;;;;;;;1.00;0.90;;;22.20;17.10;;;;;;5148293;27;36445;-75
2022/09/10 11:50:00;;;;;;;0.52;0.52;;;22.20;15.50;;;;;;5142587;27;34301;-75
2022/09/10 11:52:29;;;;;;;1.45;0.70;;;22.20;18.00;;;;;;5144156;27;34165;-76
2022/09/10 11:54:57;;;;;;;1.10;0.90;;;22.00;18.50;;;;;;5150370;27;34113;-80
2022/09/10 11:57:52;;;;;;;2.30;0.80;;;22.00;17.80;;;;;;5132271;27;35612;-77
2022/09/10 12:00:19;;;;;;;1.30;0.85;;;21.80;16.00;;;;;;5116934;27;34347;-75
2022/09/10 12:03:19;;;;;;;0.75;0.70;;;21.90;18.20;;;;;;5165709;27;34262;-77
2022/09/10 12:05:55;;;;;;;1.13;0.80;;;22.10;15.30;;;;;;5126185;27;34360;-74
2022/09/10 12:08:51;;;;;;;1.63;0.82;;;22.40;16.10;;;;;;5129094;27;35194;-74
2022/09/10 12:11:39;;;;;;;2.65;0.90;;;22.50;14.40;;;;;;5134336;27;34298;-77
2022/09/10 12:14:07;;;;;;;1.08;0.70;;;22.40;15.20;;;;;;5139047;27;34354;-76
2022/09/10 12:16:40;;;;;;;2.83;0.90;;;22.40;16.60;;;;;;5139368;27;34644;-79
2022/09/10 12:19:21;;;;;;;1.17;1.02;;;22.40;16.20;;;;;;5156722;27;34157;-76
2022/09/10 12:21:52;;;;;;;1.27;0.77;;;22.30;13.90;;;;;;5096141;27;34074;-78
2022/09/10 12:24:27;;;;;;;2.60;0.90;;;22.30;16.50;;;;;;5114596;27;34303;-76
2022/09/10 12:26:54;;;;;;;0.60;0.60;;;22.40;14.90;;;;;;5125391;27;34360;-77
2022/09/10 12:29:37;;;;;;;1.40;1.05;;;22.60;16.50;;;;;;5125646;27;36747;-75
2022/09/10 12:32:27;;;;;;;2.10;0.68;;;22.70;13.60;;;;;;5104787;28;34228;-74
2022/09/10 12:35:23;;;;;;;0.80;0.73;;;22.70;14.10;;;;;;5117825;27;34182;-79
2022/09/10 12:38:24;;;;;;;1.48;0.70;;;22.60;12.70;;;;;;5113544;27;34724;-77
2022/09/10 12:40:50;;;;;;;2.38;1.45;;;22.50;13.40;;;;;;5090405;28;35920;-79
2022/09/10 12:43:56;;;;;;;2.20;0.88;;;22.40;15.70;;;;;;5097495;27;34170;-76
2022/09/10 12:46:24;;;;;;;0.70;0.70;;;22.40;14.00;;;;;;5090761;28;34183;-78
2022/09/10 12:49:05;;;;;;;2.28;0.73;;;22.30;15.50;;;;;;5105232;28;34555;-75
2022/09/10 12:51:57;;;;;;;0.73;0.60;;;22.20;13.40;;;;;;5114937;27;34322;-76
2022/09/10 12:54:41;;;;;;;1.00;0.70;;;22.20;14.20;;;;;;5124335;27;34231;-79
2022/09/10 12:57:24;;;;;;;0.65;0.65;;;22.00;13.80;;;;;;5115764;27;34265;-75
2022/09/10 13:00:21;;;;;;;1.55;1.08;;;22.30;14.40;;;;;;5117300;27;34372;-79
2022/09/10 13:02:52;;;;;;;1.40;0.85;;;22.30;15.20;;;;;;5123647;27;36038;-79
2022/09/10 13:05:43;;;;;;;1.15;0.80;;;22.20;15.10;;;;;;5110021;27;34489;-77
2022/09/10 13:08:24;;;;;;;3.65;1.00;;;22.30;15.80;;;;;;5092863;27;34014;-77
2022/09/10 13:11:14;;;;;;;0.82;0.65;;;22.30;15.60;;;;;;5110044;27;34243;-77
2022/09/10 13:13:59;;;;;;;1.75;0.70;;;22.30;13.60;;;;;;5101039;27;35660;-82
2022/09/10 13:16:41;;;;;;;2.13;0.90;;;22.30;15.10;;;;;;5111279;27;34312;-76
2022/09/10 13:19:46;;;;;;;0.65;0.65;;;22.40;14.30;;;;;;5123592;27;34293;-79